sensor_id;sensor_type;location;lat;lon;timestamp;P1;durP1;ratioP1;P2;durP2;ratioP2
53411;SDS011;39307;52.870;13.660;2022-11-20T00:01:48;16.80;;;13.27;;
53411;SDS011;39307;52.870;13.660;2022-11-20T00:04:14;17.35;;;13.88;;
53411;SDS011;39307;52.870;13.660;2022-11-20T00:06:40;16.58;;;13.13;;
53411;SDS011;39307;52.870;13.660;2022-11-20T00:09:06;16.45;;;13.10;;
53411;SDS011;39307;52.870;13.660;2022-11-20T00:11:35;17.27;;;13.88;;
53411;SDS011;39307;52.870;13.660;2022-11-20T00:14:01;17.23;;;12.82;;
53411;SDS011;39307;52.870;13.660;2022-11-20T00:16:29;16.70;;;13.57;;
53411;SDS011;39307;52.870;13.660;2022-11-20T00:18:57;16.58;;;13.20;;
53411;SDS011;39307;52.870;13.660;2022-11-20T00:21:24;15.57;;;12.85;;
53411;SDS011;39307;52.870;13.660;2022-11-20T00:23:52;16.25;;;13.40;;
53411;SDS011;39307;52.870;13.660;2022-11-20T00:26:20;16.15;;;13.77;;
53411;SDS011;39307;52.870;13.660;2022-11-20T00:28:50;16.98;;;13.38;;
53411;SDS011;39307;52.870;13.660;2022-11-20T00:31:22;16.70;;;13.05;;
53411;SDS011;39307;52.870;13.660;2022-11-20T00:33:48;15.55;;;12.90;;
53411;SDS011;39307;52.870;13.660;2022-11-20T00:36:22;16.45;;;13.73;;
53411;SDS011;39307;52.870;13.660;2022-11-20T00:38:53;15.82;;;12.80;;
53411;SDS011;39307;52.870;13.660;2022-11-20T00:41:20;15.45;;;12.73;;
53411;SDS011;39307;52.870;13.660;2022-11-20T00:43:47;17.35;;;13.40;;
53411;SDS011;39307;52.870;13.660;2022-11-20T00:46:14;17.40;;;13.40;;
53411;SDS011;39307;52.870;13.660;2022-11-20T00:48:42;16.70;;;13.47;;
53411;SDS011;39307;52.870;13.660;2022-11-20T00:51:09;16.45;;;13.65;;
53411;SDS011;39307;52.870;13.660;2022-11-20T00:53:38;16.35;;;13.88;;
53411;SDS011;39307;52.870;13.660;2022-11-20T00:56:05;16.90;;;14.05;;
53411;SDS011;39307;52.870;13.660;2022-11-20T00:58:36;16.97;;;13.83;;
53411;SDS011;39307;52.870;13.660;2022-11-20T01:01:05;17.90;;;14.65;;
53411;SDS011;39307;52.870;13.660;2022-11-20T01:03:43;17.47;;;14.30;;
53411;SDS011;39307;52.870;13.660;2022-11-20T01:06:12;19.48;;;15.38;;
53411;SDS011;39307;52.870;13.660;2022-11-20T01:08:40;17.88;;;14.95;;
53411;SDS011;39307;52.870;13.660;2022-11-20T01:11:07;19.70;;;15.35;;
53411;SDS011;39307;52.870;13.660;2022-11-20T01:13:38;18.83;;;15.50;;
53411;SDS011;39307;52.870;13.660;2022-11-20T01:16:12;20.25;;;16.33;;
53411;SDS011;39307;52.870;13.660;2022-11-20T01:18:40;20.35;;;16.15;;
53411;SDS011;39307;52.870;13.660;2022-11-20T01:21:12;21.23;;;16.10;;
53411;SDS011;39307;52.870;13.660;2022-11-20T01:23:41;20.92;;;16.05;;
53411;SDS011;39307;52.870;13.660;2022-11-20T01:26:12;21.58;;;16.70;;
53411;SDS011;39307;52.870;13.660;2022-11-20T01:28:41;21.27;;;16.50;;
53411;SDS011;39307;52.870;13.660;2022-11-20T01:31:24;21.40;;;16.10;;
53411;SDS011;39307;52.870;13.660;2022-11-20T01:33:58;20.30;;;16.30;;
53411;SDS011;39307;52.870;13.660;2022-11-20T01:36:30;22.38;;;17.25;;
53411;SDS011;39307;52.870;13.660;2022-11-20T01:38:58;21.58;;;16.73;;
53411;SDS011;39307;52.870;13.660;2022-11-20T01:41:30;21.13;;;17.15;;
53411;SDS011;39307;52.870;13.660;2022-11-20T01:43:58;21.00;;;16.88;;
53411;SDS011;39307;52.870;13.660;2022-11-20T01:46:25;23.30;;;17.58;;
53411;SDS011;39307;52.870;13.660;2022-11-20T01:48:54;21.85;;;17.38;;
53411;SDS011;39307;52.870;13.660;2022-11-20T01:51:29;22.25;;;17.52;;
53411;SDS011;39307;52.870;13.660;2022-11-20T01:54:01;24.48;;;18.23;;
53411;SDS011;39307;52.870;13.660;2022-11-20T01:56:32;22.52;;;18.23;;
53411;SDS011;39307;52.870;13.660;2022-11-20T01:59:04;21.52;;;17.23;;
53411;SDS011;39307;52.870;13.660;2022-11-20T02:01:33;22.67;;;17.17;;
53411;SDS011;39307;52.870;13.660;2022-11-20T02:03:59;22.70;;;18.27;;
53411;SDS011;39307;52.870;13.660;2022-11-20T02:06:31;21.17;;;17.17;;
53411;SDS011;39307;52.870;13.660;2022-11-20T02:09:20;22.80;;;18.20;;
53411;SDS011;39307;52.870;13.660;2022-11-20T02:11:47;22.23;;;17.30;;
53411;SDS011;39307;52.870;13.660;2022-11-20T02:14:13;21.97;;;17.10;;
53411;SDS011;39307;52.870;13.660;2022-11-20T02:16:42;21.57;;;16.13;;
53411;SDS011;39307;52.870;13.660;2022-11-20T02:19:22;22.25;;;17.00;;
53411;SDS011;39307;52.870;13.660;2022-11-20T02:22:00;20.83;;;16.73;;
53411;SDS011;39307;52.870;13.660;2022-11-20T02:24:28;21.42;;;16.63;;
53411;SDS011;39307;52.870;13.660;2022-11-20T02:29:42;22.58;;;16.63;;
53411;SDS011;39307;52.870;13.660;2022-11-20T02:32:33;21.55;;;16.63;;
53411;SDS011;39307;52.870;13.660;2022-11-20T02:37:45;21.15;;;16.67;;
53411;SDS011;39307;52.870;13.660;2022-11-20T02:40:14;21.60;;;16.55;;
53411;SDS011;39307;52.870;13.660;2022-11-20T02:42:40;21.98;;;17.38;;
53411;SDS011;39307;52.870;13.660;2022-11-20T02:45:07;24.70;;;18.15;;
53411;SDS011;39307;52.870;13.660;2022-11-20T02:47:33;22.15;;;17.48;;
53411;SDS011;39307;52.870;13.660;2022-11-20T02:50:00;22.00;;;17.20;;
53411;SDS011;39307;52.870;13.660;2022-11-20T02:52:26;22.58;;;17.73;;
53411;SDS011;39307;52.870;13.660;2022-11-20T02:54:52;27.67;;;18.52;;
53411;SDS011;39307;52.870;13.660;2022-11-20T02:57:18;24.15;;;18.30;;
53411;SDS011;39307;52.870;13.660;2022-11-20T02:59:44;24.57;;;18.17;;
53411;SDS011;39307;52.870;13.660;2022-11-20T03:02:11;24.75;;;18.35;;
53411;SDS011;39307;52.870;13.660;2022-11-20T03:04:37;25.00;;;18.48;;
53411;SDS011;39307;52.870;13.660;2022-11-20T03:07:04;25.05;;;18.67;;
53411;SDS011;39307;52.870;13.660;2022-11-20T03:09:30;25.30;;;18.47;;
53411;SDS011;39307;52.870;13.660;2022-11-20T03:11:56;26.13;;;18.80;;
53411;SDS011;39307;52.870;13.660;2022-11-20T03:14:23;25.83;;;19.25;;
53411;SDS011;39307;52.870;13.660;2022-11-20T03:16:49;27.67;;;19.60;;
53411;SDS011;39307;52.870;13.660;2022-11-20T03:19:15;27.02;;;19.40;;
53411;SDS011;39307;52.870;13.660;2022-11-20T03:21:41;25.10;;;18.58;;
53411;SDS011;39307;52.870;13.660;2022-11-20T03:24:08;27.48;;;19.65;;
53411;SDS011;39307;52.870;13.660;2022-11-20T03:26:34;27.77;;;19.70;;
53411;SDS011;39307;52.870;13.660;2022-11-20T03:29:02;26.77;;;19.85;;
53411;SDS011;39307;52.870;13.660;2022-11-20T03:31:33;27.98;;;19.55;;
53411;SDS011;39307;52.870;13.660;2022-11-20T03:34:05;28.75;;;20.17;;
53411;SDS011;39307;52.870;13.660;2022-11-20T03:36:31;29.98;;;20.27;;
53411;SDS011;39307;52.870;13.660;2022-11-20T03:38:57;27.50;;;19.38;;
53411;SDS011;39307;52.870;13.660;2022-11-20T03:41:25;27.67;;;19.83;;
53411;SDS011;39307;52.870;13.660;2022-11-20T03:43:57;27.80;;;19.38;;
53411;SDS011;39307;52.870;13.660;2022-11-20T03:46:25;27.55;;;20.05;;
53411;SDS011;39307;52.870;13.660;2022-11-20T03:48:52;27.07;;;19.27;;
53411;SDS011;39307;52.870;13.660;2022-11-20T03:51:19;27.85;;;19.33;;
53411;SDS011;39307;52.870;13.660;2022-11-20T03:53:47;26.43;;;18.63;;
53411;SDS011;39307;52.870;13.660;2022-11-20T03:56:16;25.88;;;19.65;;
53411;SDS011;39307;52.870;13.660;2022-11-20T03:58:43;26.63;;;19.05;;
53411;SDS011;39307;52.870;13.660;2022-11-20T04:01:14;25.02;;;18.70;;
53411;SDS011;39307;52.870;13.660;2022-11-20T04:03:51;24.17;;;18.50;;
53411;SDS011;39307;52.870;13.660;2022-11-20T04:06:19;25.92;;;18.90;;
53411;SDS011;39307;52.870;13.660;2022-11-20T04:08:51;25.55;;;18.75;;
53411;SDS011;39307;52.870;13.660;2022-11-20T04:11:21;23.83;;;17.98;;
53411;SDS011;39307;52.870;13.660;2022-11-20T04:13:50;24.67;;;18.27;;
53411;SDS011;39307;52.870;13.660;2022-11-20T04:16:18;24.88;;;18.80;;
53411;SDS011;39307;52.870;13.660;2022-11-20T04:18:45;24.33;;;17.85;;
53411;SDS011;39307;52.870;13.660;2022-11-20T04:21:11;23.20;;;17.42;;
53411;SDS011;39307;52.870;13.660;2022-11-20T04:23:37;23.73;;;17.95;;
53411;SDS011;39307;52.870;13.660;2022-11-20T04:28:31;24.00;;;17.58;;
53411;SDS011;39307;52.870;13.660;2022-11-20T04:31:04;24.15;;;18.13;;
53411;SDS011;39307;52.870;13.660;2022-11-20T04:33:32;21.63;;;17.35;;
53411;SDS011;39307;52.870;13.660;2022-11-20T04:36:03;22.90;;;17.50;;
53411;SDS011;39307;52.870;13.660;2022-11-20T04:38:31;22.02;;;16.90;;
53411;SDS011;39307;52.870;13.660;2022-11-20T04:40:58;22.00;;;17.15;;
53411;SDS011;39307;52.870;13.660;2022-11-20T04:43:27;24.80;;;17.98;;
53411;SDS011;39307;52.870;13.660;2022-11-20T04:45:54;24.07;;;18.13;;
53411;SDS011;39307;52.870;13.660;2022-11-20T04:48:20;23.97;;;18.73;;
53411;SDS011;39307;52.870;13.660;2022-11-20T04:50:47;24.33;;;18.35;;
53411;SDS011;39307;52.870;13.660;2022-11-20T04:53:13;26.20;;;19.27;;
53411;SDS011;39307;52.870;13.660;2022-11-20T04:55:39;23.45;;;18.40;;
53411;SDS011;39307;52.870;13.660;2022-11-20T04:58:06;24.95;;;18.08;;
53411;SDS011;39307;52.870;13.660;2022-11-20T05:00:32;26.20;;;18.58;;
53411;SDS011;39307;52.870;13.660;2022-11-20T05:02:58;25.00;;;18.58;;
53411;SDS011;39307;52.870;13.660;2022-11-20T05:05:24;26.53;;;18.93;;
53411;SDS011;39307;52.870;13.660;2022-11-20T05:07:50;24.02;;;18.73;;
53411;SDS011;39307;52.870;13.660;2022-11-20T05:10:17;26.42;;;19.38;;
53411;SDS011;39307;52.870;13.660;2022-11-20T05:12:43;26.77;;;19.52;;
53411;SDS011;39307;52.870;13.660;2022-11-20T05:15:09;27.10;;;20.03;;
53411;SDS011;39307;52.870;13.660;2022-11-20T05:17:35;26.92;;;19.90;;
53411;SDS011;39307;52.870;13.660;2022-11-20T05:20:01;25.40;;;19.35;;
53411;SDS011;39307;52.870;13.660;2022-11-20T05:22:28;26.73;;;20.10;;
53411;SDS011;39307;52.870;13.660;2022-11-20T05:24:54;27.48;;;19.48;;
53411;SDS011;39307;52.870;13.660;2022-11-20T05:27:20;26.57;;;20.03;;
53411;SDS011;39307;52.870;13.660;2022-11-20T05:29:46;28.33;;;20.55;;
53411;SDS011;39307;52.870;13.660;2022-11-20T05:32:12;30.13;;;20.35;;
53411;SDS011;39307;52.870;13.660;2022-11-20T05:34:39;28.75;;;20.58;;
53411;SDS011;39307;52.870;13.660;2022-11-20T05:37:05;26.52;;;19.17;;
53411;SDS011;39307;52.870;13.660;2022-11-20T05:39:31;28.30;;;20.90;;
53411;SDS011;39307;52.870;13.660;2022-11-20T05:41:57;27.60;;;21.17;;
53411;SDS011;39307;52.870;13.660;2022-11-20T05:44:23;27.65;;;20.85;;
53411;SDS011;39307;52.870;13.660;2022-11-20T05:46:49;27.05;;;20.73;;
53411;SDS011;39307;52.870;13.660;2022-11-20T05:49:16;27.52;;;20.05;;
53411;SDS011;39307;52.870;13.660;2022-11-20T05:51:42;28.23;;;21.10;;
53411;SDS011;39307;52.870;13.660;2022-11-20T05:54:08;28.13;;;21.20;;
53411;SDS011;39307;52.870;13.660;2022-11-20T05:56:34;28.88;;;21.73;;
53411;SDS011;39307;52.870;13.660;2022-11-20T05:59:00;28.02;;;20.65;;
53411;SDS011;39307;52.870;13.660;2022-11-20T06:01:27;29.27;;;21.38;;
53411;SDS011;39307;52.870;13.660;2022-11-20T06:03:53;25.83;;;20.02;;
53411;SDS011;39307;52.870;13.660;2022-11-20T06:06:20;28.25;;;21.27;;
53411;SDS011;39307;52.870;13.660;2022-11-20T06:08:46;27.77;;;21.08;;
53411;SDS011;39307;52.870;13.660;2022-11-20T06:11:13;27.40;;;20.27;;
53411;SDS011;39307;52.870;13.660;2022-11-20T06:13:40;28.20;;;20.55;;
53411;SDS011;39307;52.870;13.660;2022-11-20T06:16:08;27.42;;;21.35;;
53411;SDS011;39307;52.870;13.660;2022-11-20T06:18:35;28.30;;;20.85;;
53411;SDS011;39307;52.870;13.660;2022-11-20T06:21:05;27.00;;;19.95;;
53411;SDS011;39307;52.870;13.660;2022-11-20T06:23:33;28.35;;;20.90;;
53411;SDS011;39307;52.870;13.660;2022-11-20T06:26:04;28.25;;;20.63;;
53411;SDS011;39307;52.870;13.660;2022-11-20T06:28:32;29.08;;;20.90;;
53411;SDS011;39307;52.870;13.660;2022-11-20T06:30:58;26.67;;;20.25;;
53411;SDS011;39307;52.870;13.660;2022-11-20T06:33:25;28.02;;;20.35;;
53411;SDS011;39307;52.870;13.660;2022-11-20T06:35:51;28.20;;;20.37;;
53411;SDS011;39307;52.870;13.660;2022-11-20T06:38:18;27.92;;;20.83;;
53411;SDS011;39307;52.870;13.660;2022-11-20T06:40:44;28.48;;;20.17;;
53411;SDS011;39307;52.870;13.660;2022-11-20T06:43:10;28.35;;;20.55;;
53411;SDS011;39307;52.870;13.660;2022-11-20T06:45:36;27.33;;;20.87;;
53411;SDS011;39307;52.870;13.660;2022-11-20T06:48:03;28.95;;;20.52;;
53411;SDS011;39307;52.870;13.660;2022-11-20T06:50:29;29.00;;;21.07;;
53411;SDS011;39307;52.870;13.660;2022-11-20T06:52:55;27.48;;;20.85;;
53411;SDS011;39307;52.870;13.660;2022-11-20T06:55:22;28.58;;;21.20;;
53411;SDS011;39307;52.870;13.660;2022-11-20T06:57:48;27.58;;;20.80;;
53411;SDS011;39307;52.870;13.660;2022-11-20T07:00:15;28.05;;;21.05;;
53411;SDS011;39307;52.870;13.660;2022-11-20T07:02:42;28.08;;;20.85;;
53411;SDS011;39307;52.870;13.660;2022-11-20T07:05:08;28.13;;;20.63;;
53411;SDS011;39307;52.870;13.660;2022-11-20T07:07:34;29.70;;;20.03;;
53411;SDS011;39307;52.870;13.660;2022-11-20T07:10:00;27.60;;;20.33;;
53411;SDS011;39307;52.870;13.660;2022-11-20T07:12:26;25.55;;;19.35;;
53411;SDS011;39307;52.870;13.660;2022-11-20T07:14:52;27.13;;;19.52;;
53411;SDS011;39307;52.870;13.660;2022-11-20T07:17:19;27.87;;;20.23;;
53411;SDS011;39307;52.870;13.660;2022-11-20T07:19:45;27.67;;;20.73;;
53411;SDS011;39307;52.870;13.660;2022-11-20T07:22:11;26.33;;;19.95;;
53411;SDS011;39307;52.870;13.660;2022-11-20T07:24:37;27.08;;;19.88;;
53411;SDS011;39307;52.870;13.660;2022-11-20T07:27:04;28.00;;;20.17;;
53411;SDS011;39307;52.870;13.660;2022-11-20T07:29:30;28.00;;;20.80;;
53411;SDS011;39307;52.870;13.660;2022-11-20T07:31:56;26.58;;;20.27;;
53411;SDS011;39307;52.870;13.660;2022-11-20T07:34:23;27.27;;;19.97;;
53411;SDS011;39307;52.870;13.660;2022-11-20T07:36:49;25.77;;;19.88;;
53411;SDS011;39307;52.870;13.660;2022-11-20T07:39:15;25.50;;;19.20;;
53411;SDS011;39307;52.870;13.660;2022-11-20T07:41:41;27.35;;;20.25;;
53411;SDS011;39307;52.870;13.660;2022-11-20T07:44:07;26.90;;;19.30;;
53411;SDS011;39307;52.870;13.660;2022-11-20T07:46:34;26.92;;;19.38;;
53411;SDS011;39307;52.870;13.660;2022-11-20T07:49:00;29.13;;;20.60;;
53411;SDS011;39307;52.870;13.660;2022-11-20T07:51:26;27.90;;;21.00;;
53411;SDS011;39307;52.870;13.660;2022-11-20T07:53:52;27.30;;;19.60;;
53411;SDS011;39307;52.870;13.660;2022-11-20T07:56:19;27.77;;;20.42;;
53411;SDS011;39307;52.870;13.660;2022-11-20T07:58:45;26.88;;;19.75;;
53411;SDS011;39307;52.870;13.660;2022-11-20T08:01:11;27.27;;;20.40;;
53411;SDS011;39307;52.870;13.660;2022-11-20T08:03:37;26.27;;;20.13;;
53411;SDS011;39307;52.870;13.660;2022-11-20T08:06:04;26.90;;;19.45;;
53411;SDS011;39307;52.870;13.660;2022-11-20T08:08:30;26.97;;;19.90;;
53411;SDS011;39307;52.870;13.660;2022-11-20T08:10:57;26.55;;;19.35;;
53411;SDS011;39307;52.870;13.660;2022-11-20T08:13:23;27.83;;;20.00;;
53411;SDS011;39307;52.870;13.660;2022-11-20T08:15:49;29.63;;;20.53;;
53411;SDS011;39307;52.870;13.660;2022-11-20T08:18:16;29.17;;;20.60;;
53411;SDS011;39307;52.870;13.660;2022-11-20T08:20:43;29.10;;;19.27;;
53411;SDS011;39307;52.870;13.660;2022-11-20T08:23:09;29.10;;;20.53;;
53411;SDS011;39307;52.870;13.660;2022-11-20T08:25:36;29.02;;;20.42;;
53411;SDS011;39307;52.870;13.660;2022-11-20T08:28:04;29.70;;;21.58;;
53411;SDS011;39307;52.870;13.660;2022-11-20T08:30:31;28.33;;;20.92;;
53411;SDS011;39307;52.870;13.660;2022-11-20T08:33:02;29.33;;;21.10;;
53411;SDS011;39307;52.870;13.660;2022-11-20T08:35:33;29.73;;;20.63;;
53411;SDS011;39307;52.870;13.660;2022-11-20T08:38:01;29.30;;;20.98;;
53411;SDS011;39307;52.870;13.660;2022-11-20T08:40:27;28.20;;;21.08;;
53411;SDS011;39307;52.870;13.660;2022-11-20T08:42:54;28.38;;;20.88;;
53411;SDS011;39307;52.870;13.660;2022-11-20T08:45:20;30.25;;;21.27;;
53411;SDS011;39307;52.870;13.660;2022-11-20T08:47:46;29.53;;;20.83;;
53411;SDS011;39307;52.870;13.660;2022-11-20T08:50:13;29.00;;;20.63;;
53411;SDS011;39307;52.870;13.660;2022-11-20T08:52:40;27.60;;;20.50;;
53411;SDS011;39307;52.870;13.660;2022-11-20T08:55:07;28.58;;;21.10;;
53411;SDS011;39307;52.870;13.660;2022-11-20T08:57:33;28.95;;;20.63;;
53411;SDS011;39307;52.870;13.660;2022-11-20T09:00:01;29.63;;;21.38;;
53411;SDS011;39307;52.870;13.660;2022-11-20T09:02:28;31.38;;;23.38;;
53411;SDS011;39307;52.870;13.660;2022-11-20T09:04:54;28.83;;;21.42;;
53411;SDS011;39307;52.870;13.660;2022-11-20T09:07:21;28.73;;;21.25;;
53411;SDS011;39307;52.870;13.660;2022-11-20T09:09:47;30.65;;;22.40;;
53411;SDS011;39307;52.870;13.660;2022-11-20T09:12:13;30.75;;;21.67;;
53411;SDS011;39307;52.870;13.660;2022-11-20T09:14:39;29.67;;;21.50;;
53411;SDS011;39307;52.870;13.660;2022-11-20T09:17:06;29.17;;;21.40;;
53411;SDS011;39307;52.870;13.660;2022-11-20T09:19:32;28.30;;;20.67;;
53411;SDS011;39307;52.870;13.660;2022-11-20T09:21:58;28.95;;;21.33;;
53411;SDS011;39307;52.870;13.660;2022-11-20T09:24:25;28.85;;;21.30;;
53411;SDS011;39307;52.870;13.660;2022-11-20T09:26:52;29.95;;;21.42;;
53411;SDS011;39307;52.870;13.660;2022-11-20T09:29:18;26.53;;;19.97;;
53411;SDS011;39307;52.870;13.660;2022-11-20T09:31:45;26.40;;;20.40;;
53411;SDS011;39307;52.870;13.660;2022-11-20T09:34:11;27.23;;;20.13;;
53411;SDS011;39307;52.870;13.660;2022-11-20T09:36:37;28.67;;;20.90;;
53411;SDS011;39307;52.870;13.660;2022-11-20T09:39:03;28.15;;;21.00;;
53411;SDS011;39307;52.870;13.660;2022-11-20T09:41:51;27.43;;;19.77;;
53411;SDS011;39307;52.870;13.660;2022-11-20T09:47:25;26.37;;;19.87;;
53411;SDS011;39307;52.870;13.660;2022-11-20T09:50:32;27.92;;;19.45;;
53411;SDS011;39307;52.870;13.660;2022-11-20T09:56:17;29.25;;;20.25;;
53411;SDS011;39307;52.870;13.660;2022-11-20T09:58:47;28.55;;;20.10;;
53411;SDS011;39307;52.870;13.660;2022-11-20T10:01:21;27.65;;;19.85;;
53411;SDS011;39307;52.870;13.660;2022-11-20T10:06:21;27.02;;;19.52;;
53411;SDS011;39307;52.870;13.660;2022-11-20T10:09:14;29.00;;;21.58;;
53411;SDS011;39307;52.870;13.660;2022-11-20T10:12:09;25.83;;;19.45;;
53411;SDS011;39307;52.870;13.660;2022-11-20T10:25:23;27.88;;;19.60;;
53411;SDS011;39307;52.870;13.660;2022-11-20T10:31:00;28.20;;;19.95;;
53411;SDS011;39307;52.870;13.660;2022-11-20T10:33:35;26.93;;;19.33;;
53411;SDS011;39307;52.870;13.660;2022-11-20T10:36:19;25.77;;;18.13;;
53411;SDS011;39307;52.870;13.660;2022-11-20T10:38:58;28.10;;;19.67;;
53411;SDS011;39307;52.870;13.660;2022-11-20T10:41:34;26.30;;;18.77;;
53411;SDS011;39307;52.870;13.660;2022-11-20T10:44:14;26.67;;;19.35;;
53411;SDS011;39307;52.870;13.660;2022-11-20T10:46:45;26.45;;;19.00;;
53411;SDS011;39307;52.870;13.660;2022-11-20T10:49:13;25.98;;;19.02;;
53411;SDS011;39307;52.870;13.660;2022-11-20T10:51:48;26.27;;;18.00;;
53411;SDS011;39307;52.870;13.660;2022-11-20T11:00:30;26.17;;;17.58;;
53411;SDS011;39307;52.870;13.660;2022-11-20T11:02:57;27.52;;;18.35;;
53411;SDS011;39307;52.870;13.660;2022-11-20T11:05:25;26.17;;;19.05;;
53411;SDS011;39307;52.870;13.660;2022-11-20T11:08:12;25.83;;;18.80;;
53411;SDS011;39307;52.870;13.660;2022-11-20T11:15:47;27.10;;;18.90;;
53411;SDS011;39307;52.870;13.660;2022-11-20T11:18:22;26.75;;;18.73;;
53411;SDS011;39307;52.870;13.660;2022-11-20T11:20:55;25.13;;;18.15;;
53411;SDS011;39307;52.870;13.660;2022-11-20T11:23:33;24.45;;;18.20;;
53411;SDS011;39307;52.870;13.660;2022-11-20T11:26:04;22.67;;;16.90;;
53411;SDS011;39307;52.870;13.660;2022-11-20T11:31:43;22.60;;;16.10;;
53411;SDS011;39307;52.870;13.660;2022-11-20T11:34:13;23.15;;;16.77;;
53411;SDS011;39307;52.870;13.660;2022-11-20T11:36:40;24.27;;;16.83;;
53411;SDS011;39307;52.870;13.660;2022-11-20T11:39:17;22.63;;;16.65;;
53411;SDS011;39307;52.870;13.660;2022-11-20T11:41:45;23.52;;;17.23;;
53411;SDS011;39307;52.870;13.660;2022-11-20T11:44:19;24.02;;;16.77;;
53411;SDS011;39307;52.870;13.660;2022-11-20T11:46:52;22.83;;;16.77;;
53411;SDS011;39307;52.870;13.660;2022-11-20T11:49:21;22.63;;;16.23;;
53411;SDS011;39307;52.870;13.660;2022-11-20T11:57:39;21.50;;;15.98;;
53411;SDS011;39307;52.870;13.660;2022-11-20T12:00:09;21.08;;;15.98;;
53411;SDS011;39307;52.870;13.660;2022-11-20T12:10:49;22.77;;;17.00;;
53411;SDS011;39307;52.870;13.660;2022-11-20T12:15:58;23.70;;;17.05;;
53411;SDS011;39307;52.870;13.660;2022-11-20T12:18:26;22.50;;;16.83;;
53411;SDS011;39307;52.870;13.660;2022-11-20T12:23:27;21.55;;;15.95;;
53411;SDS011;39307;52.870;13.660;2022-11-20T12:26:13;21.92;;;16.50;;
53411;SDS011;39307;52.870;13.660;2022-11-20T12:29:15;23.90;;;16.13;;
53411;SDS011;39307;52.870;13.660;2022-11-20T12:34:44;21.83;;;16.00;;
53411;SDS011;39307;52.870;13.660;2022-11-20T12:40:28;21.88;;;15.90;;
53411;SDS011;39307;52.870;13.660;2022-11-20T12:43:21;22.50;;;15.90;;
53411;SDS011;39307;52.870;13.660;2022-11-20T12:45:58;21.60;;;15.70;;
53411;SDS011;39307;52.870;13.660;2022-11-20T12:54:23;21.13;;;15.03;;
53411;SDS011;39307;52.870;13.660;2022-11-20T13:00:01;20.55;;;15.45;;
53411;SDS011;39307;52.870;13.660;2022-11-20T13:05:09;21.15;;;15.45;;
53411;SDS011;39307;52.870;13.660;2022-11-20T13:07:53;22.45;;;15.63;;
53411;SDS011;39307;52.870;13.660;2022-11-20T13:10:23;21.00;;;15.77;;
53411;SDS011;39307;52.870;13.660;2022-11-20T13:13:13;22.20;;;16.75;;
53411;SDS011;39307;52.870;13.660;2022-11-20T13:15:56;21.08;;;15.93;;
53411;SDS011;39307;52.870;13.660;2022-11-20T13:18:41;21.65;;;16.45;;
53411;SDS011;39307;52.870;13.660;2022-11-20T13:21:18;22.20;;;15.73;;
53411;SDS011;39307;52.870;13.660;2022-11-20T13:26:47;23.27;;;17.67;;
53411;SDS011;39307;52.870;13.660;2022-11-20T13:29:17;22.13;;;17.00;;
53411;SDS011;39307;52.870;13.660;2022-11-20T13:31:44;23.15;;;17.05;;
53411;SDS011;39307;52.870;13.660;2022-11-20T13:34:34;23.65;;;17.42;;
53411;SDS011;39307;52.870;13.660;2022-11-20T13:37:00;24.02;;;17.38;;
53411;SDS011;39307;52.870;13.660;2022-11-20T13:41:58;23.98;;;17.50;;
53411;SDS011;39307;52.870;13.660;2022-11-20T13:44:46;24.58;;;18.05;;
53411;SDS011;39307;52.870;13.660;2022-11-20T13:47:21;24.25;;;17.52;;
53411;SDS011;39307;52.870;13.660;2022-11-20T13:49:49;23.45;;;17.60;;
53411;SDS011;39307;52.870;13.660;2022-11-20T13:55:19;23.15;;;17.60;;
53411;SDS011;39307;52.870;13.660;2022-11-20T13:58:03;23.17;;;17.88;;
53411;SDS011;39307;52.870;13.660;2022-11-20T14:00:32;23.45;;;17.40;;
53411;SDS011;39307;52.870;13.660;2022-11-20T14:03:07;22.88;;;16.63;;
53411;SDS011;39307;52.870;13.660;2022-11-20T14:05:45;24.45;;;17.33;;
53411;SDS011;39307;52.870;13.660;2022-11-20T14:08:27;22.50;;;16.80;;
53411;SDS011;39307;52.870;13.660;2022-11-20T14:11:11;25.08;;;17.90;;
53411;SDS011;39307;52.870;13.660;2022-11-20T14:16:32;24.40;;;17.48;;
53411;SDS011;39307;52.870;13.660;2022-11-20T14:21:45;24.35;;;18.42;;
53411;SDS011;39307;52.870;13.660;2022-11-20T14:24:19;26.38;;;18.88;;
53411;SDS011;39307;52.870;13.660;2022-11-20T14:26:46;23.77;;;17.45;;
53411;SDS011;39307;52.870;13.660;2022-11-20T14:29:19;24.98;;;17.42;;
53411;SDS011;39307;52.870;13.660;2022-11-20T14:31:54;24.03;;;18.30;;
53411;SDS011;39307;52.870;13.660;2022-11-20T14:34:23;25.58;;;17.83;;
53411;SDS011;39307;52.870;13.660;2022-11-20T14:37:11;24.60;;;18.47;;
53411;SDS011;39307;52.870;13.660;2022-11-20T14:39:47;24.20;;;17.55;;
53411;SDS011;39307;52.870;13.660;2022-11-20T14:42:20;22.93;;;16.60;;
53411;SDS011;39307;52.870;13.660;2022-11-20T14:44:48;23.53;;;17.70;;
53411;SDS011;39307;52.870;13.660;2022-11-20T14:47:18;25.77;;;18.40;;
53411;SDS011;39307;52.870;13.660;2022-11-20T14:49:49;26.33;;;18.90;;
53411;SDS011;39307;52.870;13.660;2022-11-20T14:52:18;24.73;;;18.27;;
53411;SDS011;39307;52.870;13.660;2022-11-20T14:54:48;24.42;;;17.92;;
53411;SDS011;39307;52.870;13.660;2022-11-20T14:57:23;24.73;;;18.23;;
53411;SDS011;39307;52.870;13.660;2022-11-20T14:59:51;22.83;;;17.50;;
53411;SDS011;39307;52.870;13.660;2022-11-20T15:02:39;27.27;;;19.77;;
53411;SDS011;39307;52.870;13.660;2022-11-20T15:05:12;25.65;;;18.67;;
53411;SDS011;39307;52.870;13.660;2022-11-20T15:07:40;25.83;;;18.75;;
53411;SDS011;39307;52.870;13.660;2022-11-20T15:10:11;26.23;;;19.20;;
53411;SDS011;39307;52.870;13.660;2022-11-20T15:12:50;25.77;;;19.38;;
53411;SDS011;39307;52.870;13.660;2022-11-20T15:15:21;25.58;;;18.65;;
53411;SDS011;39307;52.870;13.660;2022-11-20T15:17:57;24.48;;;18.33;;
53411;SDS011;39307;52.870;13.660;2022-11-20T15:20:26;26.15;;;18.58;;
53411;SDS011;39307;52.870;13.660;2022-11-20T15:22:56;25.73;;;19.50;;
53411;SDS011;39307;52.870;13.660;2022-11-20T15:25:22;26.88;;;19.33;;
53411;SDS011;39307;52.870;13.660;2022-11-20T15:27:48;24.92;;;19.20;;
53411;SDS011;39307;52.870;13.660;2022-11-20T15:30:19;24.88;;;18.85;;
53411;SDS011;39307;52.870;13.660;2022-11-20T15:32:46;26.30;;;19.45;;
53411;SDS011;39307;52.870;13.660;2022-11-20T15:35:13;26.75;;;19.77;;
53411;SDS011;39307;52.870;13.660;2022-11-20T15:37:41;26.88;;;19.73;;
53411;SDS011;39307;52.870;13.660;2022-11-20T15:40:08;24.33;;;18.15;;
53411;SDS011;39307;52.870;13.660;2022-11-20T15:42:35;25.05;;;19.05;;
53411;SDS011;39307;52.870;13.660;2022-11-20T15:45:01;25.80;;;18.67;;
53411;SDS011;39307;52.870;13.660;2022-11-20T15:47:29;26.15;;;19.55;;
53411;SDS011;39307;52.870;13.660;2022-11-20T15:49:58;26.02;;;18.50;;
53411;SDS011;39307;52.870;13.660;2022-11-20T15:52:25;25.20;;;17.85;;
53411;SDS011;39307;52.870;13.660;2022-11-20T15:54:51;25.07;;;18.80;;
53411;SDS011;39307;52.870;13.660;2022-11-20T15:57:18;26.17;;;19.38;;
53411;SDS011;39307;52.870;13.660;2022-11-20T15:59:44;25.20;;;18.70;;